Tiempo atmosférico en la estación meteorológica de Vigo, Pontevedra (120 m.)



Fecha
DESCASC
Temp. máxima en grados centígrados (hora)
DESCASC
Temp. mínima en grados centígrados (hora)
DESCASC
Temp. media en grados centígrados
DESCASC
Racha de viento máxima en m/sg (hora)
DESCASC
Velocidad máxima media en intervalos de 10 minutos(hora)
DESCASC
Precipitaciones diarias en mm
DESCASC
Precipitaciones de 00:00 a 06:00 en mm
DESCASC
Precipitaciones de 06:00 a 12:00 en mm
DESCASC
Precipitaciones de 12:00 a 18:00 en mm
DESCASC
Precipitaciones de 18:00 a 24:00 en mm
DESCASC
23-06-2019 23.3 (15:30) 15.6 (01:40) 19.4 6.94 (17:00) 2.5 (15:40) 1 0.8 0.2 0 0
22-06-2019 23.2 (15:40) 14.4 (02:20) 18.8 5.56 (13:30) 2.5 (13:20) 0 0 0 0 0
21-06-2019 21.9 (16:40) 12.5 (07:20) 17.2 5.83 (15:00) 2.5 (18:20) 0 0 0 0 0
20-06-2019 22.2 (13:30) 15.1 (00:00) 18.7 4.72 (16:50) 1.94 (13:40) 0 0 0 0 0
19-06-2019 -- (--) -- (--) -- -- (--) -- (--) -- 0.2 0 -- 0
18-06-2019 -- (--) -- (--) -- -- (--) -- (--) -- 1.2 0.2 -- 0
17-06-2019 18.3 (19:30) 11.3 (00:00) 14.8 5.28 (14:50) 2.22 (11:10) 0 0 0 0 0
16-06-2019 21.5 (15:00) 10.2 (00:00) 15.8 5.28 (15:30) 2.22 (14:20) 0 0 0 0 0
15-06-2019 19.3 (14:00) 11.8 (00:00) 15.5 6.39 (14:30) 2.78 (15:40) 0.2 0.2 0 0 0
14-06-2019 18.9 (17:10) 9.5 (00:00) 14.2 6.11 (16:30) 2.5 (15:50) 0.2 0 0 0 0.2
13-06-2019 18.1 (14:10) 9.3 (00:00) 13.7 7.22 (16:10) 2.5 (16:30) 0 0 0 0 0
12-06-2019 18.7 (16:00) 9.3 (00:00) 14 5.83 (15:50) 2.22 (13:00) 0 0 0 0 0
11-06-2019 21.2 (16:10) 12.1 (00:00) 16.7 10.83 (11:20) 5.83 (20:40) 0 0 0 0 0
10-06-2019 19.5 (14:20) 9.9 (00:00) 14.7 5.56 (15:40) 2.22 (13:20) 0 0 0 0 0
09-06-2019 18.6 (19:20) 10.1 (00:00) 14.4 6.11 (16:00) 2.5 (16:00) 0 0 0 0 0
08-06-2019 19.5 (18:20) 9 (00:00) 14.3 5 (14:50) 2.22 (15:30) 0 0 0 0 0
07-06-2019 17.8 (15:50) 9.2 (00:00) 13.5 6.67 (13:40) 2.5 (13:40) 3.4 3.2 0.2 0 0
06-06-2019 15.7 (18:00) 11.7 (00:00) 13.7 14.17 (12:40) 5.83 (14:40) 12 0.4 0 11 0.6
05-06-2019 17.8 (14:20) 11.5 (00:00) 14.6 7.22 (18:40) 2.5 (15:50) 1.8 0.8 0.8 0.2 0
04-06-2019 19.6 (15:00) 13.6 (00:00) 16.6 10 (08:10) 2.78 (08:20) 2 0 1.4 0.6 0
03-06-2019 20.2 (15:40) 15.8 (00:00) 18 6.11 (14:20) 2.5 (14:20) 0.4 0 0.2 0.2 0
02-06-2019 22.1 (17:50) 13.7 (00:00) 17.9 5.28 (19:40) 2.5 (18:20) 0 0 0 0 0
01-06-2019 28.8 (14:10) 15.8 (00:00) 22.3 5.56 (16:20) 2.5 (13:00) 0 0 0 0 0
31-05-2019 33.9 (13:20) 20 (00:00) 27 7.78 (14:30) 3.06 (14:30) 0 0 0 0 0
30-05-2019 29.4 (16:10) 19.3 (00:00) 24.3 5.56 (18:00) 2.22 (13:30) 0 0 0 0 0
29-05-2019 28.3 (18:20) 13.6 (00:00) 20.9 5.83 (02:30) 2.22 (09:40) 0 0 0 0 0
28-05-2019 25.5 (16:10) 11.9 (00:00) 18.7 11.11 (19:10) 5 (19:10) 0 0 0 0 0
27-05-2019 23.2 (17:50) 13.2 (00:00) 18.2 9.72 (18:10) 5.28 (16:50) 0 0 0 0 0
26-05-2019 25 (15:10) 12.4 (00:00) 18.7 6.11 (16:10) 2.5 (16:10) 0 0 0 0 0
25-05-2019 25.2 (17:50) 13.2 (00:00) 19.2 10.28 (20:50) 5.83 (20:50) 0 0 0 0 0

Gráficas

Temp. máximas Temp. mínimas Temp. medias Precipitaciones Rachas de viento máximas Velocidades máximas media en intervalos de 10 minutos

Datos horarios

Fecha y hora oficial Temperatura (ºC) Velocidad del viento (km/h) Dirección del viento Racha (km/h) Dirección de racha Precipitación (mm) Presión (hPa) Tendencia (hPa) Humedad (%)
2019-06-23 23:00:00 16.5 3 Oeste 9 Oeste 0 -- -- 87
2019-06-23 22:00:00 17.4 5 Oeste 12 Oeste 0 -- -- 86
2019-06-23 21:00:00 18.1 3 Norte 12 Oeste 0 -- -- 79
2019-06-23 20:00:00 19.1 3 Sudoeste 15 Sudoeste 0 -- -- 77
2019-06-23 19:00:00 19.7 6 Sudoeste 20 Oeste 0 -- -- 78
2019-06-23 18:00:00 21.7 6 Sudoeste 20 Oeste 0 -- -- 71
2019-06-23 17:00:00 22.2 8 Sudoeste 25 Oeste 0 -- -- 68
2019-06-23 16:00:00 22.8 6 Sudoeste 23 Sudoeste 0 -- -- 67
2019-06-23 15:00:00 22.1 6 Sudoeste 23 Sudoeste 0 -- -- 67
2019-06-23 14:00:00 21.7 5 Sudoeste 13 Sudoeste 0 -- -- 69
2019-06-23 13:00:00 20.3 3 Sudoeste 16 Oeste 0 -- -- 77
2019-06-23 12:00:00 19.4 4 Oeste 14 Oeste 0 -- -- 83
2019-06-23 11:00:00 18.5 2 Sudoeste 8 Noroeste 0 -- -- 83
2019-06-23 10:00:00 17.6 2 Sur 10 Sur 0 -- -- 87
2019-06-23 09:00:00 16.7 3 Sur 10 Sur 0 -- -- 91
2019-06-23 08:00:00 16.1 4 Sur 10 Sur 0.2 -- -- 93
2019-06-23 07:00:00 16.1 5 Sur 14 Sur 0 -- -- 92
2019-06-23 06:00:00 16.2 5 Sur 21 Sur 0 -- -- 90
2019-06-23 05:00:00 16.3 8 Sur 20 Sur 0 -- -- 88
2019-06-23 04:00:00 16 6 Sur 21 Sudeste 0 -- -- 90
2019-06-23 03:00:00 16 6 Sur 18 Sur 0 -- -- 91
2019-06-23 02:00:00 15.9 7 Sur 19 Sudeste 0.6 -- -- 85
2019-06-23 01:00:00 17.9 6 Este 14 Sudeste 0.2 -- -- 72
2019-06-23 00:00:00 19 2 Sudeste 14 Sur 0 -- -- 51
2019-06-22 23:00:00 19 4 Sur 16 Sur 0 -- -- 51
2019-06-22 22:00:00 19.4 4 Sur 14 Sur 0 -- -- 50
2019-06-22 21:00:00 20.2 6 Sur 17 Sudeste 0 -- -- 46
2019-06-22 20:00:00 20.6 8 Sur 19 Sur 0 -- -- 46
2019-06-22 19:00:00 21.1 3 Sur 14 Sudeste 0 -- -- 47
2019-06-22 18:00:00 21.9 2 Sur 18 Sudoeste 0 -- -- 50
2019-06-22 17:00:00 20.5 0 Calma 15 Sudeste 0 -- -- 59
2019-06-22 16:00:00 22.8 4 Nordeste 13 Nordeste 0 -- -- 59
2019-06-22 15:00:00 21.6 5 Noroeste 13 Norte 0 -- -- 61
2019-06-22 14:00:00 21 6 Oeste 20 Oeste 0 -- -- 63
2019-06-22 13:00:00 19.6 8 Oeste 15 Oeste 0 -- -- 73
2019-06-22 12:00:00 18.6 4 Sudeste 9 Sudeste 0 -- -- 75
2019-06-22 11:00:00 17.1 2 Nordeste 10 Norte 0 -- -- 82
2019-06-22 10:00:00 16.5 3 Norte 11 Norte 0 -- -- 87
2019-06-22 09:00:00 15.7 0 Calma 10 Oeste 0 -- -- 89
2019-06-22 08:00:00 15 4 Sudoeste 13 Noroeste 0 -- -- 95
2019-06-22 07:00:00 14.7 0 Calma 4 Oeste 0 -- -- 92
2019-06-22 06:00:00 14.6 0 Calma 3 Noroeste 0 -- -- 89
2019-06-22 05:00:00 14.7 0 Calma 4 Norte 0 -- -- 93
2019-06-22 04:00:00 14.6 0 Calma 4 Oeste 0 -- -- 93
2019-06-22 03:00:00 14.7 0 Calma 3 Oeste 0 -- -- 90
2019-06-22 02:00:00 14.7 3 Sur 5 Sudeste 0 -- -- 86
2019-06-22 01:00:00 15.3 0 Calma 0 Calma 0 -- -- 80
2019-06-22 00:00:00 16 0 Calma 7 Noroeste 0 -- -- 87
2019-06-21 23:00:00 16.9 0 Calma 4 Sudeste 0 -- -- 73
2019-06-21 22:00:00 18.3 0 Calma 9 Oeste 0 -- -- 68
2019-06-21 21:00:00 20.5 3 Oeste 11 Oeste 0 -- -- 62
2019-06-21 20:00:00 19.7 4 Sudoeste 17 Oeste 0 -- -- 64
2019-06-21 19:00:00 21.2 7 Sudoeste 21 Sudoeste 0 -- -- 59
2019-06-21 18:00:00 21.4 9 Sudoeste 19 Oeste 0 -- -- 60
2019-06-21 17:00:00 21.6 7 Oeste 18 Oeste 0 -- -- 60
2019-06-21 16:00:00 21.5 6 Oeste 17 Oeste 0 -- -- 62
2019-06-21 15:00:00 20.6 8 Oeste 21 Oeste 0 -- -- 62
2019-06-21 14:00:00 20.8 7 Sudoeste 21 Sur 0 -- -- 63
2019-06-21 13:00:00 20.7 8 Oeste 19 Sudoeste 0 -- -- 62
2019-06-21 12:00:00 20.7 3 Norte 12 Norte 0 -- -- 61
2019-06-21 11:00:00 20 3 Nordeste 13 Este 0 -- -- 64
2019-06-21 10:00:00 18.4 4 Este 12 Este 0 -- -- 69
2019-06-21 09:00:00 16 4 Nordeste 10 Nordeste 0 -- -- 78
2019-06-21 08:00:00 13.4 3 Este 10 Este 0 -- -- 90
2019-06-21 07:00:00 12.7 2 Nordeste 6 Nordeste 0 -- -- 89
2019-06-21 06:00:00 13.1 2 Nordeste 7 Norte 0 -- -- 89
2019-06-21 05:00:00 13.8 3 Nordeste 12 Nordeste 0 -- -- 83
2019-06-21 04:00:00 13.5 0 Calma 5 Norte 0 -- -- 87
2019-06-21 03:00:00 14.6 0 Calma 9 Nordeste 0 -- -- 83
2019-06-21 02:00:00 15.5 0 Calma 12 Norte 0 -- -- 79
2019-06-21 01:00:00 16.7 4 Nordeste 14 Nordeste 0 -- -- 73
2019-06-21 00:00:00 17.2 4 Nordeste 12 Nordeste 0 -- -- 70
2019-06-20 23:00:00 18.1 3 Norte 14 Norte 0 -- -- 75
2019-06-20 22:00:00 19.4 4 Nordeste 15 Norte 0 -- -- 69
2019-06-20 21:00:00 20.1 5 Noroeste 13 Noroeste 0 -- -- 72
2019-06-20 20:00:00 20.1 4 Oeste 12 Oeste 0 -- -- 73
2019-06-20 19:00:00 21.7 5 Oeste 13 Oeste 0 -- -- 63
2019-06-20 18:00:00 19.8 5 Oeste 13 Oeste 0 -- -- 68
2019-06-20 17:00:00 19.5 4 Sudoeste 17 Oeste 0 -- -- 69
2019-06-20 16:00:00 21.5 5 Oeste 17 Oeste 0 -- -- 65
2019-06-20 15:00:00 21.2 3 Este 12 Sudoeste 0 -- -- 67
2019-06-20 14:00:00 21.4 6 Oeste 16 Oeste 0 -- -- 67
2019-06-20 13:00:00 21.1 5 Sudoeste 14 Oeste 0 -- -- 71
2019-06-20 12:00:00 20 4 Norte 12 Norte 0 -- -- 73
2019-06-20 11:00:00 18.5 3 Nordeste 8 Norte 0 -- -- 82
2019-06-20 10:00:00 16.5 0 Calma 6 Noroeste 0 -- -- 92
2019-06-20 09:00:00 15.9 0 Calma 4 Sudeste 0 -- -- 96
2019-06-20 08:00:00 15.4 0 Calma 3 Oeste 0 -- -- 98
2019-06-20 07:00:00 15.2 0 Calma 6 Oeste 0 -- -- 98
2019-06-20 06:00:00 15.2 3 Oeste 5 Oeste 0 -- -- 97
2019-06-20 05:00:00 15.3 0 Calma 5 Oeste 0 -- -- 98
2019-06-20 04:00:00 15.4 2 Noroeste 6 Norte 0 -- -- 97
2019-06-20 03:00:00 15.4 0 Calma 4 Sur 0 -- -- 96
2019-06-20 02:00:00 15.4 0 Calma 5 Oeste 0 -- -- 96
2019-06-20 01:00:00 15.7 0 Calma 6 Sudoeste 0 -- -- 94
2019-06-20 00:00:00 15.6 0 Calma 5 Sur 0 -- -- 93
2019-06-19 23:00:00 15.8 2 Sudoeste 7 Oeste 0 -- -- 92
2019-06-19 22:00:00 15.9 3 Sudoeste 10 Oeste 0 -- -- 93
2019-06-19 21:00:00 16.5 4 Oeste 11 Oeste 0 -- -- 91
2019-06-19 20:00:00 17.1 3 Sudoeste 22 Oeste 0 -- -- 84
2019-06-19 19:00:00 18.6 6 Oeste 24 Oeste 0 -- -- 82
2019-06-19 18:00:00 19.4 8 Oeste 22 Sudoeste 0 -- -- 77
2019-06-19 17:00:00 19.6 6 Sudoeste 19 Sudoeste 0 -- -- 79
2019-06-19 16:00:00 20.6 6 Sudoeste -- -- -- -- -- 72
2019-06-19 15:00:00 -- -- -- -- -- -- -- -- --
2019-06-19 14:00:00 -- -- -- -- -- -- -- -- --
2019-06-19 13:00:00 -- -- -- -- -- -- -- -- --
2019-06-19 12:00:00 18.5 4 Sudoeste 14 Oeste 0 -- -- 84
2019-06-19 11:00:00 17.9 2 Sur 8 Sudoeste 0 -- -- 79
2019-06-19 10:00:00 17.2 3 Sur 11 Sur 0 -- -- 85
2019-06-19 09:00:00 16.3 4 Sur 9 Sur 0 -- -- 87
2019-06-19 08:00:00 16 3 Sur 7 Sur 0 -- -- 87
2019-06-19 07:00:00 15.9 3 Sur 9 Sur 0 -- -- 89
2019-06-19 06:00:00 15.9 4 Sur 14 Sudoeste 0 -- -- 91
2019-06-19 05:00:00 16.1 0 Calma 5 Sudoeste 0 -- -- 93
2019-06-19 04:00:00 16.3 0 Calma 8 Sur 0 -- -- 90
2019-06-19 03:00:00 16.4 2 Sur 7 Sudoeste 0 -- -- 90
2019-06-19 02:00:00 16.4 0 Calma 6 Sudoeste 0 -- -- 89
2019-06-19 01:00:00 16.4 3 Sur 8 Sur 0.2 -- -- 89
2019-06-19 00:00:00 16.7 4 Sur 17 Sudoeste 0 -- -- 89
2019-06-18 23:00:00 16.9 4 Sur 13 Sur 0 -- -- 91
2019-06-18 22:00:00 17.9 5 Sudoeste 14 Sudoeste 0 -- -- 82
2019-06-18 21:00:00 18.6 6 Sur 21 Sudoeste 0 -- -- 78
2019-06-18 20:00:00 20.1 7 Sur 20 Sudoeste 0 -- -- 71
2019-06-18 19:00:00 21 8 Sur 19 Oeste 0 -- -- 69
2019-06-18 18:00:00 -- -- -- -- -- -- -- -- --
2019-06-18 17:00:00 20 6 Sudoeste -- -- -- -- -- 78
2019-06-18 16:00:00 18.7 10 Sur 42 Sur 0.6 -- -- 86
2019-06-18 15:00:00 17.1 17 Sur 31 Sudoeste 0.6 -- -- 89
2019-06-18 14:00:00 19.6 11 Sur 35 Sur 0 -- -- 77
2019-06-18 13:00:00 19.1 11 Sur 39 Sudeste 0 -- -- 77
2019-06-18 12:00:00 18.2 7 Sur 26 Sur 0 -- -- 81
2019-06-18 11:00:00 16.4 6 Sudeste 26 Sudeste 0 -- -- 85
2019-06-18 10:00:00 16 9 Sudeste 24 Sudeste 0 -- -- 84
2019-06-18 09:00:00 14.2 6 Sudeste 21 Este 0 -- -- 88
2019-06-18 08:00:00 13.8 8 Este 19 Sudeste 0.2 -- -- 81
2019-06-18 07:00:00 13.3 4 Nordeste 12 Sudeste 0 -- -- 86
2019-06-18 06:00:00 13.5 3 Sudeste 10 Sudeste 0.8 -- -- 86
2019-06-18 05:00:00 14.4 2 Nordeste 6 Nordeste 0.4 -- -- 93
2019-06-18 04:00:00 14.7 0 Calma 4 Este 0 -- -- 88
2019-06-18 03:00:00 15.1 2 Sudoeste 9 Noroeste 0 -- -- 84
2019-06-18 02:00:00 16.4 3 Sur 8 Sudoeste 0 -- -- 65
2019-06-18 01:00:00 15.5 2 Sur 6 Sudeste 0 -- -- 67
2019-06-18 00:00:00 14.7 0 Calma 6 Nordeste 0 -- -- 77
2019-06-17 23:00:00 15.2 3 Nordeste 10 Este 0 -- -- 82
2019-06-17 22:00:00 14.7 2 Nordeste 8 Nordeste 0 -- -- 82
2019-06-17 21:00:00 15.3 4 Sudoeste 17 Oeste 0 -- -- 87
2019-06-17 20:00:00 17 5 Sudoeste 17 Sudoeste 0 -- -- 81
2019-06-17 19:00:00 17.3 6 Oeste 16 Sudoeste 0 -- -- 78
2019-06-17 18:00:00 17.9 6 Noroeste 17 Oeste 0 -- -- 75
2019-06-17 17:00:00 17 7 Oeste 14 Oeste 0 -- -- 80
2019-06-17 16:00:00 17.2 6 Oeste 13 Oeste 0 -- -- 78
2019-06-17 15:00:00 16.3 5 Sudoeste 19 Sudoeste 0 -- -- 82
2019-06-17 14:00:00 15.8 4 Oeste 14 Oeste 0 -- -- 83
2019-06-17 13:00:00 16.4 5 Sudoeste 18 Oeste 0 -- -- 80
2019-06-17 12:00:00 17.1 7 Oeste 15 Oeste 0 -- -- 78
2019-06-17 11:00:00 17.5 3 Nordeste 8 Este 0 -- -- 74
2019-06-17 10:00:00 16.3 4 Norte 10 Norte 0 -- -- 77
2019-06-17 09:00:00 14.8 0 Calma 5 Nordeste 0 -- -- 84
2019-06-17 08:00:00 11.9 2 Este 5 Este 0 -- -- 94
2019-06-17 07:00:00 11.4 0 Calma 5 Sur 0 -- -- 93
2019-06-17 06:00:00 11.3 0 Calma 4 Sudeste 0 -- -- 92
2019-06-17 05:00:00 11.6 0 Calma 3 Sudeste 0 -- -- 93
2019-06-17 04:00:00 12.2 0 Calma 4 Sudeste 0 -- -- 92
2019-06-17 03:00:00 12.6 0 Calma 4 Sudeste 0 -- -- 94
2019-06-17 02:00:00 12.9 0 Calma 4 Sudeste 0 -- -- 89
2019-06-17 01:00:00 13.2 0 Calma 5 Sudeste 0 -- -- 88
2019-06-17 00:00:00 14 0 Calma 9 Sur 0 -- -- 85
2019-06-16 23:00:00 14.7 4 Sur 9 Sur 0 -- -- 83
2019-06-16 22:00:00 15.7 3 Sur 11 Oeste 0 -- -- 80
2019-06-16 21:00:00 17.6 5 Sudoeste 16 Oeste 0 -- -- 69
2019-06-16 20:00:00 19.2 5 Sudoeste 15 Sudoeste 0 -- -- 62
2019-06-16 19:00:00 20.2 4 Este 19 Oeste 0 -- -- 57
2019-06-16 18:00:00 20.7 4 Sudoeste 15 Oeste 0 -- -- 56
2019-06-16 17:00:00 20.8 5 Sudoeste 16 Oeste 0 -- -- 58
2019-06-16 16:00:00 20.9 4 Oeste 19 Oeste 0 -- -- 59
2019-06-16 15:00:00 21.5 5 Sudoeste 17 Oeste 0 -- -- 57
2019-06-16 14:00:00 20.3 7 Oeste 17 Oeste 0 -- -- 61
2019-06-16 13:00:00 19.3 6 Sudoeste 13 Sur 0 -- -- 63
2019-06-16 12:00:00 18.2 5 Oeste 11 Oeste 0 -- -- 65
2019-06-16 11:00:00 17.1 4 Oeste 8 Oeste 0 -- -- 67
2019-06-16 10:00:00 15.5 3 Nordeste 9 Nordeste 0 -- -- 73
2019-06-16 09:00:00 13.5 0 Calma 6 Norte 0 -- -- 81
2019-06-16 08:00:00 10.6 0 Calma 4 Sudeste 0 -- -- 93
2019-06-16 07:00:00 10.2 0 Calma 4 Nordeste 0 -- -- 96
2019-06-16 06:00:00 10.5 0 Calma 4 Sur 0 -- -- 94
2019-06-16 05:00:00 10.7 2 Sudeste 4 Sudeste 0 -- -- 93
2019-06-16 04:00:00 11.1 0 Calma 3 Sur 0 -- -- 93
2019-06-16 03:00:00 11.4 2 Sudeste 6 Sudeste 0 -- -- 92
2019-06-16 02:00:00 11.9 2 Sudeste 4 Sudeste 0 -- -- 89
2019-06-16 01:00:00 12.6 3 Sur 4 Sur 0 -- -- 88
2019-06-16 00:00:00 13.1 0 Calma 6 Oeste 0 -- -- 86
2019-06-15 23:00:00 14.1 0 Calma 8 Oeste 0 -- -- 82
2019-06-15 22:00:00 15.2 3 Noroeste 11 Noroeste 0 -- -- 75
2019-06-15 21:00:00 17.8 4 Oeste 15 Oeste 0 -- -- 66
2019-06-15 20:00:00 18.9 3 Sudoeste 16 Sudoeste 0 -- -- 64
2019-06-15 19:00:00 18.7 6 Sudoeste 20 Sudoeste 0 -- -- 64
2019-06-15 18:00:00 18.6 8 Sudoeste 21 Sur 0 -- -- 65
2019-06-15 17:00:00 18.5 8 Oeste 21 Oeste 0 -- -- 68
2019-06-15 16:00:00 18.6 9 Oeste 22 Oeste 0 -- -- 69
2019-06-15 15:00:00 18.8 8 Oeste 23 Sudoeste 0 -- -- 66
2019-06-15 14:00:00 19.3 8 Sudoeste 19 Sudoeste 0 -- -- 63
2019-06-15 13:00:00 18.6 6 Oeste 17 Sudoeste 0 -- -- 64
2019-06-15 12:00:00 17.2 4 Noroeste 12 Oeste 0 -- -- 73
2019-06-15 11:00:00 16.4 2 Oeste 10 Noroeste 0 -- -- 69
2019-06-15 10:00:00 15.3 0 Calma 11 Sur 0 -- -- 80
2019-06-15 09:00:00 13.9 0 Calma 6 Sudeste 0 -- -- 86
2019-06-15 08:00:00 12.4 3 Sur 5 Sur 0 -- -- 95
2019-06-15 07:00:00 11.8 0 Calma 5 Sudeste 0 -- -- 96
2019-06-15 06:00:00 12.1 3 Sudeste 6 Sudeste 0 -- -- 96
2019-06-15 05:00:00 12.3 3 Sudeste 5 Sudeste 0 -- -- 94
2019-06-15 04:00:00 12.5 0 Calma 2 Sudoeste 0 -- -- 95
2019-06-15 03:00:00 13.6 0 Calma 8 Norte 0.2 -- -- 90
2019-06-15 02:00:00 14.1 2 Sudoeste 8 Sudoeste 0 -- -- 89
2019-06-15 01:00:00 14.1 2 Sur 12 Oeste 0 -- -- 91
2019-06-15 00:00:00 14.6 3 Sur 10 Sudoeste 0.2 -- -- 87
2019-06-14 23:00:00 15 3 Sur 9 Sur 0 -- -- 80
2019-06-14 22:00:00 15.2 3 Sudoeste 13 Sudoeste 0 -- -- 77
2019-06-14 21:00:00 15.9 4 Sudoeste 14 Sudoeste 0 -- -- 75
2019-06-14 20:00:00 17.6 6 Sudoeste 20 Oeste 0 -- -- 67
2019-06-14 19:00:00 17.9 5 Sudoeste 18 Sudoeste 0 -- -- 64
2019-06-14 18:00:00 18.7 5 Sudoeste 20 Oeste 0 -- -- 65
2019-06-14 17:00:00 18.5 6 Sudoeste 22 Oeste 0 -- -- 66
2019-06-14 16:00:00 18.3 8 Sudoeste 22 Noroeste 0 -- -- 66
2019-06-14 15:00:00 17.8 8 Sudoeste 21 Oeste 0 -- -- 65
2019-06-14 14:00:00 18 7 Sudoeste 20 Sudoeste 0 -- -- 59
2019-06-14 13:00:00 17.5 7 Oeste 18 Oeste 0 -- -- 57
2019-06-14 12:00:00 17.1 6 Oeste 12 Oeste 0 -- -- 61
2019-06-14 11:00:00 16.3 3 Oeste 9 Noroeste 0 -- -- 64
2019-06-14 10:00:00 15.2 0 Calma 8 Este 0 -- -- 75
2019-06-14 09:00:00 12.1 0 Calma 4 Nordeste 0 -- -- 88
2019-06-14 08:00:00 10.3 3 Nordeste 5 Nordeste 0 -- -- 93
2019-06-14 07:00:00 9.5 3 Sudeste 5 Sudeste 0 -- -- 94
2019-06-14 06:00:00 9.9 2 Sudeste 4 Sudeste 0 -- -- 92
2019-06-14 05:00:00 10.1 0 Calma 4 Nordeste 0 -- -- 92
2019-06-14 04:00:00 10.4 0 Calma 4 Sudeste 0 -- -- 92
2019-06-14 03:00:00 10.9 0 Calma 5 Sudeste 0 -- -- 90
2019-06-14 02:00:00 11.3 2 Sudeste 5 Sudeste 0 -- -- 88
2019-06-14 01:00:00 12.2 0 Calma 6 Sudoeste 0 -- -- 84
2019-06-14 00:00:00 12.7 2 Sudoeste 9 Sudoeste 0 -- -- 82
2019-06-13 23:00:00 13.2 2 Oeste 11 Oeste 0 -- -- 78
2019-06-13 22:00:00 14.1 2 Nordeste 9 Nordeste 0 -- -- 73
2019-06-13 21:00:00 16.7 3 Sur 12 Sudoeste 0 -- -- 63
2019-06-13 20:00:00 17.5 4 Oeste 16 Noroeste 0 -- -- 58
2019-06-13 19:00:00 17.9 5 Noroeste 18 Sudoeste 0 -- -- 60
2019-06-13 18:00:00 18 5 Oeste 23 Oeste 0 -- -- 60
2019-06-13 17:00:00 17.7 8 Sudoeste 26 Sudoeste 0 -- -- 63
2019-06-13 16:00:00 17.7 7 Sudoeste 22 Sudeste 0 -- -- 65
2019-06-13 15:00:00 17.8 5 Sudoeste 22 Sudoeste 0 -- -- 62
2019-06-13 14:00:00 17.9 6 Sudoeste 21 Sudoeste 0 -- -- 57
2019-06-13 13:00:00 17.2 8 Sudoeste 20 Oeste 0 -- -- 59
2019-06-13 12:00:00 16.5 6 Oeste 14 Oeste 0 -- -- 62
2019-06-13 11:00:00 15.5 5 Noroeste 11 Noroeste 0 -- -- 62
2019-06-13 10:00:00 14.2 2 Sur 9 Norte 0 -- -- 71
2019-06-13 09:00:00 12.4 2 Sudoeste 6 Sudeste 0 -- -- 80
2019-06-13 08:00:00 9.5 0 Calma 5 Sudeste 0 -- -- 94
2019-06-13 07:00:00 9.3 0 Calma 4 Sur 0 -- -- 94
2019-06-13 06:00:00 9.7 2 Sur 4 Sudeste 0 -- -- 93
2019-06-13 05:00:00 10.3 2 Sudeste 4 Sudeste 0 -- -- 89
2019-06-13 04:00:00 11.1 3 Norte 6 Norte 0 -- -- 87
2019-06-13 03:00:00 11.5 0 Calma 9 Norte 0 -- -- 84
2019-06-13 02:00:00 12.2 3 Norte 11 Norte 0 -- -- 81
2019-06-13 01:00:00 12.7 2 Nordeste 10 Nordeste 0 -- -- 79
2019-06-13 00:00:00 13.5 4 Norte 11 Norte 0 -- -- 77
2019-06-12 23:00:00 13.5 4 Noroeste 10 Noroeste 0 -- -- 78
2019-06-12 22:00:00 14 5 Norte 11 Norte 0 -- -- 73
2019-06-12 21:00:00 16.2 4 Norte 14 Norte 0 -- -- 67
2019-06-12 20:00:00 17.6 5 Norte 19 Norte 0 -- -- 60
2019-06-12 19:00:00 18 6 Norte 18 Noroeste 0 -- -- 55
2019-06-12 18:00:00 18.5 5 Oeste 13 Norte 0 -- -- 56
2019-06-12 17:00:00 18.4 5 Sudoeste 16 Oeste 0 -- -- 62
2019-06-12 16:00:00 18.7 6 Norte 21 Norte 0 -- -- 54
2019-06-12 15:00:00 18.3 7 Sudoeste 17 Oeste 0 -- -- 59
2019-06-12 14:00:00 17.3 5 Oeste 16 Norte 0 -- -- 60
2019-06-12 13:00:00 16.3 8 Norte 15 Norte 0 -- -- 59
2019-06-12 12:00:00 16.2 4 Oeste 13 Oeste 0 -- -- 60
2019-06-12 11:00:00 15.7 5 Norte 14 Nordeste 0 -- -- 56
2019-06-12 10:00:00 14.4 4 Nordeste 8 Nordeste 0 -- -- 70
2019-06-12 09:00:00 12.7 2 Nordeste 6 Nordeste 0 -- -- 76
2019-06-12 08:00:00 9.6 3 Sudeste 5 Norte 0 -- -- 89
2019-06-12 07:00:00 9.3 3 Nordeste 8 Nordeste 0 -- -- 92
2019-06-12 06:00:00 9.5 2 Sur 6 Sur 0 -- -- 89
2019-06-12 05:00:00 10.3 0 Calma 9 Nordeste 0 -- -- 87
2019-06-12 04:00:00 11.5 4 Nordeste 15 Norte 0 -- -- 83
2019-06-12 03:00:00 12.1 6 Norte 15 Norte 0 -- -- 78
2019-06-12 02:00:00 12.4 5 Nordeste 15 Nordeste 0 -- -- 76
2019-06-12 01:00:00 12.5 4 Norte 12 Norte 0 -- -- 75
2019-06-12 00:00:00 13.4 6 Norte 20 Norte 0 -- -- 69
2019-06-11 23:00:00 14.2 8 Norte 19 Norte 0 -- -- 64
2019-06-11 22:00:00 15.4 7 Nordeste 35 Nordeste 0 -- -- 57
2019-06-11 21:00:00 17.3 17 Norte 37 Norte 0 -- -- 52
2019-06-11 20:00:00 18.7 18 Norte 37 Norte 0 -- -- 48
2019-06-11 19:00:00 19.9 17 Norte 34 Norte 0 -- -- 46
2019-06-11 18:00:00 20.8 8 Nordeste 29 Noroeste 0 -- -- 41
2019-06-11 17:00:00 20.3 12 Nordeste 27 Noroeste 0 -- -- 44
2019-06-11 16:00:00 20.8 11 Nordeste 36 Norte 0 -- -- 42
2019-06-11 15:00:00 20.1 14 Norte 31 Norte 0 -- -- 43
2019-06-11 14:00:00 19 11 Nordeste 34 Norte 0 -- -- 47
2019-06-11 13:00:00 18.5 15 Norte 30 Nordeste 0 -- -- 48
2019-06-11 12:00:00 17.9 13 Nordeste 39 Nordeste 0 -- -- 49
2019-06-11 11:00:00 16.5 11 Nordeste 37 Nordeste 0 -- -- 53
2019-06-11 10:00:00 14.9 10 Nordeste 27 Nordeste 0 -- -- 62
2019-06-11 09:00:00 13.6 10 Nordeste 28 Nordeste 0 -- -- 69
2019-06-11 08:00:00 12.2 5 Nordeste 23 Nordeste 0 -- -- 77
2019-06-11 07:00:00 12.7 6 Nordeste 24 Norte 0 -- -- 83
2019-06-11 06:00:00 12.8 4 Nordeste 19 Nordeste 0 -- -- 76
2019-06-11 05:00:00 13.4 6 Nordeste 16 Este 0 -- -- 74
2019-06-11 04:00:00 13.8 4 Nordeste 15 Nordeste 0 -- -- 73
2019-06-11 03:00:00 14 8 Nordeste 16 Nordeste 0 -- -- 70
2019-06-11 02:00:00 14.3 5 Nordeste 15 Noroeste 0 -- -- 69
2019-06-11 01:00:00 14.4 5 Norte 14 Norte 0 -- -- 73
2019-06-11 00:00:00 14.3 3 Norte 10 Norte 0 -- -- 76
2019-06-10 23:00:00 14.2 2 Sudoeste 12 Oeste 0 -- -- 74
2019-06-10 22:00:00 14.5 2 Este 18 Noroeste 0 -- -- 76
2019-06-10 21:00:00 15.3 3 Norte 11 Sudoeste 0 -- -- 72
2019-06-10 20:00:00 16 4 Sudoeste 17 Norte 0 -- -- 69
2019-06-10 19:00:00 16.8 4 Norte 15 Sudoeste 0 -- -- 65
2019-06-10 18:00:00 18.5 4 Nordeste 19 Oeste 0 -- -- 58
2019-06-10 17:00:00 19 5 Norte 17 Norte 0 -- -- 59
2019-06-10 16:00:00 19.2 4 Noroeste 20 Oeste 0 -- -- 62
2019-06-10 15:00:00 18.7 5 Norte 17 Oeste 0 -- -- 62
2019-06-10 14:00:00 19.4 5 Norte 16 Norte 0 -- -- 57
2019-06-10 13:00:00 18.5 5 Norte 15 Oeste 0 -- -- 54
2019-06-10 12:00:00 17.1 5 Oeste 13 Norte 0 -- -- 58
2019-06-10 11:00:00 16.1 5 Nordeste 13 Norte 0 -- -- 62
2019-06-10 10:00:00 14.6 4 Norte 9 Norte 0 -- -- 71
2019-06-10 09:00:00 13 2 Nordeste 6 Este 0 -- -- 80
2019-06-10 08:00:00 10.4 3 Nordeste 8 Nordeste 0 -- -- 90
2019-06-10 07:00:00 10 2 Nordeste 9 Nordeste 0 -- -- 90
2019-06-10 06:00:00 10.1 2 Sudeste 4 Sudeste 0 -- -- 91
2019-06-10 05:00:00 10.6 2 Sur 4 Sudeste 0 -- -- 91
2019-06-10 04:00:00 11.3 0 Calma 4 Sur 0 -- -- 89
2019-06-10 03:00:00 11.8 0 Calma 5 Sudeste 0 -- -- 83
2019-06-10 02:00:00 12.1 3 Sur 6 Sudeste 0 -- -- 87
2019-06-10 01:00:00 12.4 0 Calma 4 Sudeste 0 -- -- 84
2019-06-10 00:00:00 13 0 Calma 6 Sudeste 0 -- -- 82
2019-06-09 23:00:00 14 0 Calma 8 Sur 0 -- -- 80
2019-06-09 22:00:00 14.8 3 Sudoeste 12 Sudoeste 0 -- -- 76
2019-06-09 21:00:00 17 5 Sudoeste 15 Sudoeste 0 -- -- 62
2019-06-09 20:00:00 18.2 4 Sudoeste 16 Sudoeste 0 -- -- 60
2019-06-09 19:00:00 18.3 7 Sudoeste 21 Sudoeste 0 -- -- 62
2019-06-09 18:00:00 18.3 6 Sudoeste 20 Sudoeste 0 -- -- 60
2019-06-09 17:00:00 18.1 7 Sudoeste 21 Oeste 0 -- -- 61
2019-06-09 16:00:00 18.1 9 Sudoeste 22 Noroeste 0 -- -- 61
2019-06-09 15:00:00 17.6 6 Sudoeste 18 Noroeste 0 -- -- 62
2019-06-09 14:00:00 17.4 5 Sudoeste 16 Sudoeste 0 -- -- 66
2019-06-09 13:00:00 17.8 3 Oeste 14 Oeste 0 -- -- 67
2019-06-09 12:00:00 17.1 6 Oeste 12 Oeste 0 -- -- 68
2019-06-09 11:00:00 16.3 3 Sudoeste 9 Oeste 0 -- -- 70
2019-06-09 10:00:00 15.2 3 Norte 6 Norte 0 -- -- 76
2019-06-09 09:00:00 13.1 0 Calma 5 Sudeste 0 -- -- 86
2019-06-09 08:00:00 10.4 0 Calma 5 Sudeste 0 -- -- 94
2019-06-09 07:00:00 10.2 2 Sur 4 Sur 0 -- -- 94
2019-06-09 06:00:00 10.6 2 Sur 5 Sudeste 0 -- -- 92
2019-06-09 05:00:00 10.9 0 Calma 5 Sudeste 0 -- -- 91
2019-06-09 04:00:00 11.4 3 Sudeste 6 Sudeste 0 -- -- 88
2019-06-09 03:00:00 11.8 2 Sudeste 5 Sudeste 0 -- -- 86
2019-06-09 02:00:00 12.1 0 Calma 4 Sur 0 -- -- 86
2019-06-09 01:00:00 13 3 Sudoeste 9 Norte 0 -- -- 83
2019-06-09 00:00:00 13.3 3 Sudeste 5 Sur 0 -- -- 84
2019-06-08 23:00:00 13.9 3 Oeste 7 Oeste 0 -- -- 80
2019-06-08 22:00:00 14.5 0 Calma 15 Norte 0 -- -- 75
2019-06-08 21:00:00 15.8 6 Norte 15 Norte 0 -- -- 68
2019-06-08 20:00:00 17.3 5 Norte 16 Noroeste 0 -- -- 64
2019-06-08 19:00:00 18.9 5 Norte 15 Noroeste 0 -- -- 57
2019-06-08 18:00:00 19.1 5 Oeste 17 Noroeste 0 -- -- 53
2019-06-08 17:00:00 17.3 3 Norte 12 Oeste 0 -- -- 61
2019-06-08 16:00:00 15.4 3 Norte 17 Noroeste 0 -- -- 66
2019-06-08 15:00:00 17 7 Norte 18 Noroeste 0 -- -- 62
2019-06-08 14:00:00 19.1 4 Norte 13 Nordeste 0 -- -- 58
2019-06-08 13:00:00 17.5 5 Oeste 15 Sudoeste 0 -- -- 60
2019-06-08 12:00:00 16.8 5 Norte 12 Norte 0 -- -- 53
2019-06-08 11:00:00 15.2 3 Nordeste 13 Nordeste 0 -- -- 61
2019-06-08 10:00:00 12.9 4 Nordeste 13 Norte 0 -- -- 72
2019-06-08 09:00:00 10.7 0 Calma 10 Nordeste 0 -- -- 83
2019-06-08 08:00:00 10 2 Nordeste 8 Norte 0 -- -- 85
2019-06-08 07:00:00 9.5 4 Nordeste 10 Norte 0 -- -- 87
2019-06-08 06:00:00 9.1 0 Calma 4 Norte 0 -- -- 92
2019-06-08 05:00:00 9.4 0 Calma 5 Sudeste 0 -- -- 91
2019-06-08 04:00:00 9.7 0 Calma 5 Sudeste 0 -- -- 89
2019-06-08 03:00:00 10.1 0 Calma 4 Nordeste 0 -- -- 89
2019-06-08 02:00:00 10.4 2 Sudeste 7 Sudeste 0 -- -- 87
2019-06-08 01:00:00 11.1 3 Norte 5 Nordeste 0 -- -- 88
2019-06-08 00:00:00 11.8 0 Calma 5 Noroeste 0 -- -- 85
2019-06-07 23:00:00 12.9 0 Calma 4 Norte 0 -- -- 74
2019-06-07 22:00:00 13.7 0 Calma 12 Sudoeste 0 -- -- 71
2019-06-07 21:00:00 15.3 3 Sudoeste 17 Oeste 0 -- -- 67
2019-06-07 20:00:00 17.2 5 Sudoeste 20 Oeste 0 -- -- 59
2019-06-07 19:00:00 17.4 8 Sudoeste 20 Sudoeste 0 -- -- 57
2019-06-07 18:00:00 17.7 6 Sudoeste 20 Oeste 0 -- -- 59
2019-06-07 17:00:00 17.6 7 Sudoeste 24 Oeste 0 -- -- 59
2019-06-07 16:00:00 17.8 6 Sudoeste 24 Sudoeste 0 -- -- 58
2019-06-07 15:00:00 17.5 9 Sudoeste 23 Sudoeste 0 -- -- 65
2019-06-07 14:00:00 17.2 8 Sudoeste 24 Sudoeste 0 -- -- 63
2019-06-07 13:00:00 17.1 7 Sudoeste 21 Noroeste 0 -- -- 68
2019-06-07 12:00:00 16.5 6 Sudoeste 22 Sudoeste 0 -- -- 66
2019-06-07 11:00:00 15.2 3 Sudoeste 10 Sudeste 0 -- -- 74
2019-06-07 10:00:00 13.8 0 Calma 4 Sudeste 0 -- -- 84
2019-06-07 09:00:00 10.8 0 Calma 9 Sudeste 0 -- -- 97
2019-06-07 08:00:00 9.5 2 Sur 9 Sudeste 0.2 -- -- 96
2019-06-07 07:00:00 9.4 3 Sur 8 Sudeste 0 -- -- 95
2019-06-07 06:00:00 9.9 3 Sur 11 Sur 0.6 -- -- 97
2019-06-07 05:00:00 9.2 3 Sur 8 Sur 0 -- -- 97
2019-06-07 04:00:00 9.5 2 Sur 6 Oeste 1.2 -- -- 97
2019-06-07 03:00:00 9.8 0 Calma 20 Sudoeste 1.4 -- -- 94
2019-06-07 02:00:00 11.5 5 Sudoeste 21 Sudoeste 0 -- -- 86
2019-06-07 01:00:00 12.1 5 Sudeste 17 Sudoeste 0 -- -- 81
2019-06-07 00:00:00 12.1 6 Sudoeste 14 Oeste 0 -- -- 83
2019-06-06 23:00:00 11.9 4 Sudeste 10 Sur 0 -- -- 87
2019-06-06 22:00:00 11.8 4 Sur 22 Sudoeste 0.6 -- -- 91
2019-06-06 21:00:00 13.3 6 Sur 27 Sudoeste 0 -- -- 84
2019-06-06 20:00:00 13.5 8 Sur 22 Sur 0 -- -- 84
2019-06-06 19:00:00 14 9 Sudoeste 32 Sudoeste 0 -- -- 80
2019-06-06 18:00:00 15.7 11 Sudoeste 32 Sudoeste 0 -- -- 75
2019-06-06 17:00:00 15.1 11 Sudoeste 37 Noroeste 0 -- -- 84
2019-06-06 16:00:00 13.8 12 Sudoeste 47 Sur 5.2 -- -- 97
2019-06-06 15:00:00 13.6 21 Sur 46 Sudeste 3.6 -- -- 94
2019-06-06 14:00:00 13.2 18 Sur 48 Sudoeste 2.2 -- -- 94
2019-06-06 13:00:00 14.2 16 Sur 51 Sudeste 0 -- -- 86
2019-06-06 12:00:00 14.7 17 Sur 43 Sudeste 0 -- -- 81
2019-06-06 11:00:00 13.4 12 Sur 32 Sudeste 0 -- -- 84
2019-06-06 10:00:00 12.9 9 Sur 25 Sur 0 -- -- 84
2019-06-06 09:00:00 12.8 13 Sur 29 Sur 0 -- -- 83
2019-06-06 08:00:00 12.4 8 Sur 26 Sur 0 -- -- 85
2019-06-06 07:00:00 11.8 5 Sudeste 15 Sur 0 -- -- 88
2019-06-06 06:00:00 11.7 5 Sur 13 Sur 0 -- -- 92
2019-06-06 05:00:00 11.8 5 Sur 17 Sur 0.2 -- -- 90
2019-06-06 04:00:00 12.4 5 Sur 15 Sur 0 -- -- 84
2019-06-06 03:00:00 12.4 4 Sur 11 Sudeste 0 -- -- 85
2019-06-06 02:00:00 12.5 3 Sur 7 Sudoeste 0 -- -- 84
2019-06-06 01:00:00 12.6 0 Calma 7 Sur 0.2 -- -- 87
2019-06-06 00:00:00 13.4 2 Sur 12 Oeste 0 -- -- 74
2019-06-05 23:00:00 13.7 3 Sur 10 Sudoeste 0 -- -- 72
2019-06-05 22:00:00 13.9 3 Sur 14 Oeste 0 -- -- 71
2019-06-05 21:00:00 14.7 5 Sudoeste 20 Oeste 0 -- -- 68
2019-06-05 20:00:00 15.9 4 Sudoeste 18 Oeste 0 -- -- 63
2019-06-05 19:00:00 16.9 5 Sur 26 Sudoeste 0 -- -- 58
2019-06-05 18:00:00 16.6 6 Sudoeste 24 Sudoeste 0.2 -- -- 63
2019-06-05 17:00:00 16.7 6 Sudoeste 22 Sur 0 -- -- 63
2019-06-05 16:00:00 16.7 8 Sudoeste 22 Sudoeste 0 -- -- 63
2019-06-05 15:00:00 17.4 8 Oeste 22 Oeste 0 -- -- 56
2019-06-05 14:00:00 17.6 7 Sudoeste 20 Oeste 0 -- -- 57
2019-06-05 13:00:00 16.7 5 Sudoeste 18 Oeste 0 -- -- 61
2019-06-05 12:00:00 16.1 5 Nordeste 19 Norte 0 -- -- 64
2019-06-05 11:00:00 15.7 5 Sudoeste 12 Oeste 0 -- -- 74
2019-06-05 10:00:00 13.3 0 Calma 4 Norte 0.2 -- -- 87
2019-06-05 09:00:00 12.2 4 Noroeste 8 Noroeste 0 -- -- 86
2019-06-05 08:00:00 11.5 0 Calma 14 Nordeste 0 -- -- 95
2019-06-05 07:00:00 11.5 2 Sudoeste 5 Sudoeste 0.6 -- -- 96
2019-06-05 06:00:00 11.8 0 Calma 5 Oeste 0.8 -- -- 94
2019-06-05 05:00:00 11.8 0 Calma 5 Oeste 0 -- -- 94
2019-06-05 04:00:00 11.9 0 Calma 4 Noroeste 0 -- -- 89
2019-06-05 03:00:00 12.5 0 Calma 5 Norte 0 -- -- 84
2019-06-05 02:00:00 12.9 0 Calma 11 Norte 0 -- -- 84
2019-06-05 01:00:00 13.5 6 Norte 14 Norte 0 -- -- 77
2019-06-05 00:00:00 13.6 0 Calma 18 Norte 0 -- -- 81
2019-06-04 23:00:00 14.1 7 Norte 14 Norte 0 -- -- 78
2019-06-04 22:00:00 14.6 3 Sudeste 14 Noroeste 0 -- -- 75
2019-06-04 21:00:00 16.3 4 Este 15 Noroeste 0 -- -- 66
2019-06-04 20:00:00 17.7 6 Sudoeste 20 Sudoeste 0 -- -- 66
2019-06-04 19:00:00 17 6 Sudoeste 20 Noroeste 0 -- -- 71
2019-06-04 18:00:00 18.8 6 Sudoeste 32 Oeste 0 -- -- 67
2019-06-04 17:00:00 18.1 7 Sudoeste 22 Oeste 0.2 -- -- 72
2019-06-04 16:00:00 18.5 9 Sudoeste 26 Oeste 0.2 -- -- 67
2019-06-04 15:00:00 19.6 5 Sudoeste 26 Sudoeste 0 -- -- 64
2019-06-04 14:00:00 18.7 8 Sudoeste 21 Oeste 0 -- -- 68
2019-06-04 13:00:00 18.1 8 Sudoeste 22 Sudoeste 0.2 -- -- 68
2019-06-04 12:00:00 18.1 4 Norte 16 Noroeste 0 -- -- 69
2019-06-04 11:00:00 16.6 5 Noroeste 15 Norte 0 -- -- 75
2019-06-04 10:00:00 15 6 Nordeste 16 Noroeste 0 -- -- 81
2019-06-04 09:00:00 14.1 4 Sudeste 36 Sur 1 -- -- 96
2019-06-04 08:00:00 15 3 Sudoeste 13 Sur 0.4 -- -- 94
2019-06-04 07:00:00 15.3 4 Sur 15 Sur 0 -- -- 89
2019-06-04 06:00:00 15.6 4 Sur 11 Sur 0 -- -- 82
2019-06-04 05:00:00 15.7 4 Sudoeste 18 Oeste 0 -- -- 80
2019-06-04 04:00:00 16.1 3 Sudoeste 10 Sudeste 0 -- -- 82
2019-06-04 03:00:00 15.9 4 Sur 10 Sudoeste 0 -- -- 77
2019-06-04 02:00:00 16 0 Calma 4 Sudeste 0 -- -- 73
2019-06-04 01:00:00 16 0 Calma 6 Sudeste 0 -- -- 71
2019-06-04 00:00:00 15.9 0 Calma 5 Sudoeste 0 -- -- 74
2019-06-03 23:00:00 15.9 3 Oeste 9 Sudoeste 0 -- -- 74
2019-06-03 22:00:00 16.3 3 Oeste 6 Noroeste 0 -- -- 73
2019-06-03 21:00:00 17.1 2 Oeste 11 Sudoeste 0 -- -- 78
2019-06-03 20:00:00 17.5 3 Sudoeste 14 Oeste 0 -- -- 77
2019-06-03 19:00:00 17.8 6 Oeste 17 Oeste 0 -- -- 77
2019-06-03 18:00:00 18.8 6 Sudoeste 18 Sudoeste 0 -- -- 72
2019-06-03 17:00:00 19.8 6 Sudoeste 17 Sudoeste 0 -- -- 72
2019-06-03 16:00:00 19.5 6 Oeste 18 Oeste 0 -- -- 73
2019-06-03 15:00:00 18.4 6 Sudoeste 22 Oeste 0 -- -- 81
2019-06-03 14:00:00 19.3 5 Sudoeste 19 Sudoeste 0 -- -- 83
2019-06-03 13:00:00 18.5 5 Sudoeste 14 Noroeste 0.2 -- -- 89
2019-06-03 12:00:00 18.4 5 Sudoeste 15 Oeste 0 -- -- 87
2019-06-03 11:00:00 18.6 4 Oeste 11 Oeste 0 -- -- 86
2019-06-03 10:00:00 17.8 4 Sur 10 Sudeste 0 -- -- 92
2019-06-03 09:00:00 16.5 0 Calma 4 Norte 0 -- -- 94
2019-06-03 08:00:00 16.4 0 Calma 6 Sudeste 0.2 -- -- 94
2019-06-03 07:00:00 16.4 2 Sudeste 5 Sudeste 0 -- -- 92
2019-06-03 06:00:00 16.9 0 Calma 5 Sudeste 0 -- -- 90
2019-06-03 05:00:00 17.1 0 Calma 6 Sudeste 0 -- -- 85
2019-06-03 04:00:00 17.1 3 Sudeste 6 Sudeste 0 -- -- 86
2019-06-03 03:00:00 16.9 2 Sur 7 Sur 0 -- -- 87
2019-06-03 02:00:00 16.5 2 Sudeste 8 Sudeste 0 -- -- 88
2019-06-03 01:00:00 16.2 3 Sur 5 Sur 0 -- -- 91
2019-06-03 00:00:00 16 0 Calma 3 Oeste 0 -- -- 91
2019-06-02 23:00:00 16 0 Calma 10 Sudoeste 0 -- -- 91
2019-06-02 22:00:00 16.4 4 Oeste 11 Sudoeste 0 -- -- 89
2019-06-02 21:00:00 17 4 Sudoeste 14 Sudoeste 0 -- -- 86
2019-06-02 20:00:00 17.6 4 Sudoeste 19 Sudoeste 0 -- -- 81
2019-06-02 19:00:00 19.5 8 Oeste 18 Oeste 0 -- -- 74
2019-06-02 18:00:00 22 6 Oeste 15 Oeste 0 -- -- 66
2019-06-02 17:00:00 20.7 5 Oeste 15 Oeste 0 -- -- 68
2019-06-02 16:00:00 19.7 6 Oeste 16 Sudoeste 0 -- -- 73
2019-06-02 15:00:00 19.7 6 Oeste 17 Oeste 0 -- -- 74
2019-06-02 14:00:00 19 8 Oeste 16 Oeste 0 -- -- 74
2019-06-02 13:00:00 18.9 5 Oeste 13 Oeste 0 -- -- 73
2019-06-02 12:00:00 18.2 3 Noroeste 11 Oeste 0 -- -- 77
2019-06-02 11:00:00 16.1 5 Oeste 11 Oeste 0 -- -- 84
2019-06-02 10:00:00 14.2 3 Oeste 8 Sudoeste 0 -- -- 95
2019-06-02 09:00:00 13.9 3 Sudoeste 11 Sudoeste 0 -- -- 98
2019-06-02 08:00:00 14 2 Oeste 6 Sudoeste 0 -- -- 98
2019-06-02 07:00:00 14.2 3 Nordeste 5 Nordeste 0 -- -- 98
2019-06-02 06:00:00 14.3 0 Calma 7 Sudeste 0 -- -- 98
2019-06-02 05:00:00 15.1 2 Sudoeste 9 Oeste 0 -- -- 94
2019-06-02 04:00:00 15.9 3 Sudoeste 5 Norte 0 -- -- 90
2019-06-02 03:00:00 16 0 Calma 6 Este 0 -- -- 91
2019-06-02 02:00:00 16.8 2 Sur 7 Oeste 0 -- -- 92
2019-06-02 01:00:00 17.8 3 Noroeste 8 Oeste 0 -- -- 81
2019-06-02 00:00:00 18 2 Sur 9 Sudeste 0 -- -- 71
2019-06-01 23:00:00 19.7 3 Sudoeste 8 Oeste 0 -- -- 59
2019-06-01 22:00:00 21.9 0 Calma 5 Sudoeste 0 -- -- 45
2019-06-01 21:00:00 25.1 5 Oeste 9 Oeste 0 -- -- 40
2019-06-01 20:00:00 26.2 3 Sudoeste 12 Oeste 0 -- -- 41
2019-06-01 19:00:00 26.9 4 Sudoeste 13 Sur 0 -- -- 37
2019-06-01 18:00:00 26 8 Oeste 17 Oeste 0 -- -- 40
2019-06-01 17:00:00 26.1 5 Sudoeste 20 Oeste 0 -- -- 49
2019-06-01 16:00:00 26.4 8 Oeste 19 Oeste 0 -- -- 47
2019-06-01 15:00:00 28 8 Oeste 12 Sudoeste 0 -- -- 40
2019-06-01 14:00:00 28.6 3 Oeste 10 Oeste 0 -- -- 41
2019-06-01 13:00:00 26.1 9 Oeste 14 Oeste 0 -- -- 43
2019-06-01 12:00:00 26.2 5 Noroeste 8 Oeste 0 -- -- 39
2019-06-01 11:00:00 25.7 2 Sudoeste 6 Nordeste 0 -- -- 45
2019-06-01 10:00:00 23.4 3 Nordeste 5 Sudeste 0 -- -- 55
2019-06-01 09:00:00 21 0 Calma 6 Nordeste 0 -- -- 62
2019-06-01 08:00:00 17.3 2 Este 4 Este 0 -- -- 71
2019-06-01 07:00:00 16 0 Calma 4 Nordeste 0 -- -- 88
2019-06-01 06:00:00 16.1 2 Nordeste 4 Norte 0 -- -- 87
2019-06-01 05:00:00 16.7 2 Este 4 Sudeste 0 -- -- 80
2019-06-01 04:00:00 17.9 3 Sur 6 Sudoeste 0 -- -- 77
2019-06-01 03:00:00 19.9 3 Sudoeste 6 Sudoeste 0 -- -- 60
2019-06-01 02:00:00 20.6 3 Nordeste 5 Nordeste 0 -- -- 55
2019-06-01 01:00:00 20.4 0 Calma 5 Nordeste 0 -- -- 55
2019-06-01 00:00:00 20 0 Calma 4 Sudeste 0 -- -- 66
2019-05-31 23:00:00 20.5 0 Calma 2 Sudeste 0 -- -- 64
2019-05-31 22:00:00 22.1 0 Calma 9 Oeste 0 -- -- 56
2019-05-31 21:00:00 24.7 3 Oeste 9 Oeste 0 -- -- 46
2019-05-31 20:00:00 26.6 3 Noroeste 9 Noroeste 0 -- -- 39
2019-05-31 19:00:00 26.3 4 Oeste 12 Oeste 0 -- -- 43
2019-05-31 18:00:00 27 5 Noroeste 17 Oeste 0 -- -- 39
2019-05-31 17:00:00 25.9 5 Oeste 18 Oeste 0 -- -- 40
2019-05-31 16:00:00 25.5 5 Noroeste 16 Noroeste 0 -- -- 43
2019-05-31 15:00:00 25.4 6 Oeste 28 Oeste 0 -- -- 47
2019-05-31 14:00:00 30.7 6 Sudoeste 19 Noroeste 0 -- -- 39
2019-05-31 13:00:00 33.6 5 Sudeste 14 Sudoeste 0 -- -- 31
2019-05-31 12:00:00 32.4 6 Este 13 Sudeste 0 -- -- 33
2019-05-31 11:00:00 29.5 4 Nordeste 11 Norte 0 -- -- 38
2019-05-31 10:00:00 27.4 4 Nordeste 11 Nordeste 0 -- -- 42
2019-05-31 09:00:00 24.9 5 Nordeste 13 Nordeste 0 -- -- 47
2019-05-31 08:00:00 22.3 4 Nordeste 11 Este 0 -- -- 55
2019-05-31 07:00:00 22.4 4 Nordeste 14 Este 0 -- -- 54
2019-05-31 06:00:00 23.2 5 Nordeste 13 Este 0 -- -- 51
2019-05-31 05:00:00 23.5 3 Nordeste 10 Este 0 -- -- 49
2019-05-31 04:00:00 23.7 4 Nordeste 9 Este 0 -- -- 47
2019-05-31 03:00:00 23.6 4 Este 11 Este 0 -- -- 48
2019-05-31 02:00:00 23.3 3 Nordeste 9 Este 0 -- -- 53
2019-05-31 01:00:00 23.2 4 Este 12 Este 0 -- -- 54
2019-05-31 00:00:00 21.7 0 Calma 6 Sudeste 0 -- -- 54
2019-05-30 23:00:00 21.5 0 Calma 2 Sudeste 0 -- -- 52
2019-05-30 22:00:00 23.4 0 Calma 6 Oeste 0 -- -- 50
2019-05-30 21:00:00 25.6 2 Sudoeste 11 Sudoeste 0 -- -- 41
2019-05-30 20:00:00 26.4 4 Sudoeste 18 Oeste 0 -- -- 40
2019-05-30 19:00:00 27 6 Sudoeste 17 Noroeste 0 -- -- 41
2019-05-30 18:00:00 27.6 6 Sudoeste 20 Oeste 0 -- -- 39
2019-05-30 17:00:00 28.9 6 Oeste 14 Noroeste 0 -- -- 39
2019-05-30 16:00:00 29.3 5 Sudoeste 14 Oeste 0 -- -- 37
2019-05-30 15:00:00 29.2 5 Oeste 18 Oeste 0 -- -- 38
2019-05-30 14:00:00 28.2 6 Sudoeste 16 Oeste 0 -- -- 41
2019-05-30 13:00:00 28.7 6 Oeste 13 Oeste 0 -- -- 40
2019-05-30 12:00:00 28.4 4 Nordeste 12 Nordeste 0 -- -- 43
2019-05-30 11:00:00 26.6 6 Este 14 Este 0 -- -- 47
2019-05-30 10:00:00 24.8 6 Este 14 Este 0 -- -- 50
2019-05-30 09:00:00 22.4 4 Este 17 Este 0 -- -- 55
2019-05-30 08:00:00 19.8 4 Nordeste 12 Nordeste 0 -- -- 62
2019-05-30 07:00:00 19.9 4 Nordeste 12 Este 0 -- -- 61
2019-05-30 06:00:00 19.4 3 Nordeste 9 Nordeste 0 -- -- 62
2019-05-30 05:00:00 19.6 3 Nordeste 11 Este 0 -- -- 62
2019-05-30 04:00:00 19.4 3 Sudeste 8 Sudeste 0 -- -- 61
2019-05-30 03:00:00 20 2 Este 8 Este 0 -- -- 58
2019-05-30 02:00:00 20.3 2 Nordeste 5 Nordeste 0 -- -- 60
2019-05-30 01:00:00 21.1 0 Calma 13 Norte 0 -- -- 61
2019-05-30 00:00:00 22.5 5 Nordeste 19 Este 0 -- -- 60
2019-05-29 23:00:00 22.2 0 Calma 12 Nordeste 0 -- -- 60
2019-05-29 22:00:00 23.1 5 Nordeste 10 Norte 0 -- -- 59
2019-05-29 21:00:00 25.9 0 Calma 6 Oeste 0 -- -- 53
2019-05-29 20:00:00 27.5 2 Sudoeste 8 Sudoeste 0 -- -- 49
2019-05-29 19:00:00 27.7 3 Sudoeste 10 Oeste 0 -- -- 47
2019-05-29 18:00:00 28.1 3 Sudoeste 13 Oeste 0 -- -- 48
2019-05-29 17:00:00 27.7 4 Sudoeste 11 Oeste 0 -- -- 48
2019-05-29 16:00:00 27.3 4 Sudoeste 15 Noroeste 0 -- -- 49
2019-05-29 15:00:00 25.9 6 Oeste 17 Oeste 0 -- -- 46
2019-05-29 14:00:00 24.6 7 Oeste 14 Oeste 0 -- -- 44
2019-05-29 13:00:00 24.1 6 Noroeste 12 Norte 0 -- -- 44
2019-05-29 12:00:00 23.2 4 Nordeste 9 Noroeste 0 -- -- 43
2019-05-29 11:00:00 21 4 Nordeste 11 Nordeste 0 -- -- 48
2019-05-29 10:00:00 18.9 7 Este 20 Sudeste 0 -- -- 53
2019-05-29 09:00:00 17 6 Este 17 Este 0 -- -- 54
2019-05-29 08:00:00 13.8 2 Este 13 Este 0 -- -- 64
2019-05-29 07:00:00 13.9 5 Nordeste 16 Este 0 -- -- 62
2019-05-29 06:00:00 13.9 4 Nordeste 14 Nordeste 0 -- -- 62
2019-05-29 05:00:00 13.9 3 Este 16 Norte 0 -- -- 62
2019-05-29 04:00:00 14.5 6 Nordeste 19 Nordeste 0 -- -- 60
2019-05-29 03:00:00 14.4 6 Nordeste 21 Nordeste 0 -- -- 61
2019-05-29 02:00:00 15.2 6 Nordeste 19 Nordeste 0 -- -- 58
2019-05-29 01:00:00 16.1 7 Nordeste 19 Norte 0 -- -- 55
2019-05-29 00:00:00 16.7 6 Nordeste 28 Nordeste 0 -- -- 58
2019-05-28 23:00:00 17.7 10 Nordeste 28 Nordeste 0 -- -- 60
2019-05-28 22:00:00 18.8 7 Nordeste 26 Nordeste 0 -- -- 60
2019-05-28 21:00:00 21 7 Nordeste 33 Norte 0 -- -- 54
2019-05-28 20:00:00 22.9 15 Norte 40 Norte 0 -- -- 49
2019-05-28 19:00:00 24.3 10 Nordeste 32 Norte 0 -- -- 47
2019-05-28 18:00:00 25.3 10 Norte 27 Nordeste 0 -- -- 41
2019-05-28 17:00:00 25.4 9 Norte 26 Nordeste 0 -- -- 39
2019-05-28 16:00:00 25.2 9 Norte 24 Norte 0 -- -- 39
2019-05-28 15:00:00 24.2 8 Nordeste 21 Norte 0 -- -- 40
2019-05-28 14:00:00 22.8 8 Nordeste 22 Nordeste 0 -- -- 45
2019-05-28 13:00:00 21.7 8 Nordeste 23 Norte 0 -- -- 45
2019-05-28 12:00:00 20.1 8 Nordeste 22 Nordeste 0 -- -- 50
2019-05-28 11:00:00 18.6 8 Nordeste 21 Norte 0 -- -- 52
2019-05-28 10:00:00 16.4 5 Nordeste 19 Norte 0 -- -- 59
2019-05-28 09:00:00 14.4 4 Nordeste 16 Nordeste 0 -- -- 65
2019-05-28 08:00:00 12.2 5 Nordeste 13 Nordeste 0 -- -- 73
2019-05-28 07:00:00 12 5 Nordeste 15 Nordeste 0 -- -- 72
2019-05-28 06:00:00 12.1 3 Nordeste 22 Nordeste 0 -- -- 72
2019-05-28 05:00:00 12.4 3 Nordeste 23 Nordeste 0 -- -- 71
2019-05-28 04:00:00 12.9 5 Nordeste 26 Nordeste 0 -- -- 69
2019-05-28 03:00:00 13.3 10 Nordeste 28 Nordeste 0 -- -- 67
2019-05-28 02:00:00 13.6 10 Nordeste 33 Nordeste 0 -- -- 71
2019-05-28 01:00:00 13.9 14 Norte 34 Norte 0 -- -- 75
2019-05-28 00:00:00 14.2 17 Norte 31 Norte 0 -- -- 76
2019-05-27 23:00:00 15.1 16 Norte 31 Norte 0 -- -- 74
2019-05-27 22:00:00 16.8 10 Norte 27 Norte 0 -- -- 69
2019-05-27 21:00:00 19.1 17 Norte 29 Norte 0 -- -- 64
2019-05-27 20:00:00 21.5 16 Norte 34 Nordeste 0 -- -- 57
2019-05-27 19:00:00 22.2 18 Norte 35 Norte 0 -- -- 57
2019-05-27 18:00:00 23.1 18 Norte 34 Norte 0 -- -- 53
2019-05-27 17:00:00 22.8 18 Norte 33 Norte 0 -- -- 52
2019-05-27 16:00:00 22.8 14 Norte 29 Norte 0 -- -- 51
2019-05-27 15:00:00 22.5 15 Norte 27 Nordeste 0 -- -- 54
2019-05-27 14:00:00 21.5 18 Norte 31 Norte 0 -- -- 56
2019-05-27 13:00:00 20.6 13 Norte 23 Norte 0 -- -- 65
2019-05-27 12:00:00 20.4 8 Norte 19 Norte 0 -- -- 66
2019-05-27 11:00:00 19.6 7 Norte 17 Norte 0 -- -- 72
2019-05-27 10:00:00 17.9 5 Norte 10 Norte 0 -- -- 74
2019-05-27 09:00:00 15.7 0 Calma 9 Norte 0 -- -- 85
2019-05-27 08:00:00 14.6 3 Nordeste 11 Nordeste 0 -- -- 84
2019-05-27 07:00:00 13.8 4 Este 20 Norte 0 -- -- 87
2019-05-27 06:00:00 13.6 0 Calma 5 Norte 0 -- -- 88
2019-05-27 05:00:00 14 2 Nordeste 8 Nordeste 0 -- -- 84
2019-05-27 04:00:00 14.6 4 Norte 12 Norte 0 -- -- 82
2019-05-27 03:00:00 15 4 Norte 11 Nordeste 0 -- -- 79
2019-05-27 02:00:00 15.6 2 Sudoeste 6 Noroeste 0 -- -- 81
2019-05-27 01:00:00 16.8 2 Nordeste 13 Nordeste 0 -- -- 74
2019-05-27 00:00:00 17.4 5 Nordeste 19 Nordeste 0 -- -- 72
2019-05-26 23:00:00 16.5 3 Sudoeste 6 Noroeste 0 -- -- 82
2019-05-26 22:00:00 17.5 2 Sudoeste 13 Sur 0 -- -- 79
2019-05-26 21:00:00 19.4 3 Sur 13 Oeste 0 -- -- 72
2019-05-26 20:00:00 21.7 4 Sudoeste 18 Sudoeste 0 -- -- 65
2019-05-26 19:00:00 21.9 6 Sudoeste 19 Oeste 0 -- -- 65
2019-05-26 18:00:00 23 6 Oeste 22 Oeste 0 -- -- 60
2019-05-26 17:00:00 23.1 5 Sudoeste 22 Sudoeste 0 -- -- 63
2019-05-26 16:00:00 24.1 5 Sudoeste 17 Sudoeste 0 -- -- 57
2019-05-26 15:00:00 24.8 4 Noroeste 13 Oeste 0 -- -- 47
2019-05-26 14:00:00 23 3 Oeste 10 Noroeste 0 -- -- 54
2019-05-26 13:00:00 21.3 6 Norte 10 Oeste 0 -- -- 56
2019-05-26 12:00:00 19.8 5 Norte 10 Oeste 0 -- -- 59
2019-05-26 11:00:00 17.6 3 Oeste 12 Norte 0 -- -- 68
2019-05-26 10:00:00 16.7 5 Nordeste 13 Nordeste 0 -- -- 67
2019-05-26 09:00:00 15.1 6 Nordeste 18 Nordeste 0 -- -- 72
2019-05-26 08:00:00 13.4 4 Nordeste 19 Nordeste 0 -- -- 78
2019-05-26 07:00:00 12.5 0 Calma 10 Norte 0 -- -- 82
2019-05-26 06:00:00 13.1 2 Nordeste 6 Norte 0 -- -- 81
2019-05-26 05:00:00 14.2 0 Calma 14 Nordeste 0 -- -- 75
2019-05-26 04:00:00 14.9 3 Nordeste 14 Nordeste 0 -- -- 73
2019-05-26 03:00:00 15.1 7 Nordeste 17 Nordeste 0 -- -- 74
2019-05-26 02:00:00 15.5 5 Nordeste 21 Nordeste 0 -- -- 76
2019-05-26 01:00:00 16.6 6 Nordeste 18 Nordeste 0 -- -- 73
2019-05-26 00:00:00 17.5 5 Nordeste 23 Nordeste 0 -- -- 71
2019-05-25 23:00:00 18.2 8 Nordeste 24 Norte 0 -- -- 69
2019-05-25 22:00:00 19.7 7 Nordeste 28 Nordeste 0 -- -- 64
2019-05-25 21:00:00 21.3 15 Norte 37 Norte 0 -- -- 60
2019-05-25 20:00:00 23.8 17 Norte 34 Norte 0 -- -- 55
2019-05-25 19:00:00 24.9 17 Norte 30 Norte 0 -- -- 51
2019-05-25 18:00:00 25 16 Norte 29 Norte 0 -- -- 50
2019-05-25 17:00:00 25 12 Norte 26 Nordeste 0 -- -- 49
2019-05-25 16:00:00 24.4 13 Norte 26 Norte 0 -- -- 49
2019-05-25 15:00:00 24.7 10 Norte 23 Nordeste 0 -- -- 46
2019-05-25 14:00:00 23.1 9 Norte 17 Nordeste 0 -- -- 50
2019-05-25 13:00:00 21.5 7 Norte 16 Norte 0 -- -- 53
2019-05-25 12:00:00 20.5 5 Norte 17 Nordeste 0 -- -- 51
2019-05-25 11:00:00 18.9 7 Nordeste 18 Norte 0 -- -- 56
2019-05-25 10:00:00 17.1 7 Nordeste 20 Nordeste 0 -- -- 62
2019-05-25 09:00:00 15.5 6 Nordeste 17 Este 0 -- -- 67
2019-05-25 08:00:00 13.3 3 Nordeste 15 Este 0 -- -- 73
2019-05-25 07:00:00 13.3 4 Este 19 Este 0 -- -- 73
2019-05-25 06:00:00 13.6 5 Este 19 Nordeste 0 -- -- 74
2019-05-25 05:00:00 13.6 4 Nordeste 15 Nordeste 0 -- -- 75
2019-05-25 04:00:00 13.9 7 Nordeste 15 Nordeste 0 -- -- 74
2019-05-25 03:00:00 14.1 5 Nordeste 16 Nordeste 0 -- -- 72
2019-05-25 02:00:00 14.8 6 Nordeste 25 Nordeste 0 -- -- 69
2019-05-25 01:00:00 15.6 10 Nordeste 29 Nordeste 0 -- -- 67
2019-05-25 00:00:00 16.4 14 Nordeste 28 Nordeste 0 -- -- 67